Time;durP1;ratioP1;P1;durP2;ratioP2;P2;SDS_P1;SDS_P2;PMS_P1;PMS_P2;Temp;Humidity;BMP_temperature;BMP_pressure;BME280_temperature;BME280_humidity;BME280_pressure;Samples;Min_cycle;Max_cycle;Signal;HPM_P1;HPM_P2
2023/03/16 00:01:05;;;;;;;2.85;1.88;;;;;;;7.80;100.00;96583.34;5113180;28;20031;-79
2023/03/16 00:03:30;;;;;;;2.13;1.80;;;;;;;7.79;100.00;96578.97;5113662;28;20037;-79
2023/03/16 00:05:56;;;;;;;2.45;1.10;;;;;;;7.70;100.00;96587.56;5130901;28;20023;-79
2023/03/16 00:08:21;;;;;;;1.15;1.05;;;;;;;7.81;100.00;96595.72;5126639;27;20398;-78
2023/03/16 00:10:47;;;;;;;1.00;0.65;;;;;;;7.79;100.00;96610.91;5130951;27;20052;-79
2023/03/16 00:13:14;;;;;;;4.75;2.20;;;;;;;7.78;100.00;96605.72;5134594;27;20406;-80
2023/03/16 00:15:40;;;;;;;1.98;0.93;;;;;;;7.81;100.00;96606.34;5134414;27;20037;-79
2023/03/16 00:18:06;;;;;;;4.05;1.80;;;;;;;7.76;100.00;96597.81;5104654;27;20409;-80
2023/03/16 00:20:32;;;;;;;1.60;1.35;;;;;;;7.75;100.00;96604.09;5099931;27;20106;-80
2023/03/16 00:22:58;;;;;;;1.63;0.98;;;;;;;7.69;100.00;96623.09;5132058;27;20019;-79
2023/03/16 00:25:23;;;;;;;3.33;2.47;;;;;;;7.69;100.00;96625.78;5101729;27;20041;-78
2023/03/16 00:27:49;;;;;;;3.10;1.60;;;;;;;7.62;100.00;96624.47;5129281;27;20027;-79
2023/03/16 00:30:15;;;;;;;10.55;3.08;;;;;;;7.58;100.00;96625.63;5117834;27;20088;-79
2023/03/16 00:32:40;;;;;;;0.80;0.80;;;;;;;7.56;100.00;96628.41;5113317;27;20042;-79
2023/03/16 00:35:06;;;;;;;1.88;1.17;;;;;;;7.52;100.00;96626.03;5108421;27;20110;-79
2023/03/16 00:37:32;;;;;;;2.92;1.33;;;;;;;7.43;100.00;96621.28;5125884;27;20027;-80
2023/03/16 00:39:57;;;;;;;0.95;0.88;;;;;;;7.50;100.00;96636.78;5118100;27;20031;-80
2023/03/16 00:42:28;;;;;;;0.80;0.80;;;;;;;7.46;100.00;96629.06;5102269;27;20028;-79
2023/03/16 00:44:56;;;;;;;0.90;0.88;;;;;;;7.55;100.00;96625.81;5151358;27;20477;-80
2023/03/16 00:47:23;;;;;;;1.65;1.40;;;;;;;7.64;100.00;96638.53;5123783;27;20138;-79
2023/03/16 00:49:48;;;;;;;1.08;0.98;;;;;;;7.70;100.00;96639.94;5116742;27;20031;-80
2023/03/16 00:52:14;;;;;;;2.38;1.27;;;;;;;7.74;100.00;96630.81;5118495;27;20575;-79
2023/03/16 00:54:41;;;;;;;1.15;1.15;;;;;;;7.78;100.00;96627.84;5112303;27;20076;-78
2023/03/16 00:57:08;;;;;;;0.85;0.82;;;;;;;7.72;100.00;96632.72;5101233;27;20019;-78
2023/03/16 00:59:36;;;;;;;0.60;0.57;;;;;;;7.61;100.00;96617.44;5129646;27;20032;-78
2023/03/16 01:02:04;;;;;;;0.38;0.38;;;;;;;7.54;100.00;96629.44;5116859;27;20118;-78
2023/03/16 01:04:29;;;;;;;1.92;1.23;;;;;;;7.56;100.00;96636.38;5142294;27;20026;-78
2023/03/16 01:06:55;;;;;;;5.25;1.23;;;;;;;7.61;100.00;96646.72;5118760;27;20030;-79
2023/03/16 01:09:23;;;;;;;1.75;1.52;;;;;;;7.56;100.00;96646.16;5114823;27;20033;-79
2023/03/16 01:11:52;;;;;;;1.95;1.55;;;;;;;7.58;100.00;96646.91;5107596;27;20027;-78
2023/03/16 01:14:18;;;;;;;0.68;0.68;;;;;;;7.53;100.00;96639.25;5134856;27;20023;-78
2023/03/16 01:16:44;;;;;;;1.73;1.00;;;;;;;7.45;100.00;96630.88;5143563;27;20126;-79
2023/03/16 01:19:13;;;;;;;0.55;0.55;;;;;;;7.45;100.00;96636.19;5125584;27;20057;-79
2023/03/16 01:21:43;;;;;;;2.72;1.85;;;;;;;7.41;100.00;96636.50;5126489;27;20072;-78
2023/03/16 01:24:08;;;;;;;0.82;0.82;;;;;;;7.34;100.00;96616.56;5113684;27;20046;-78
2023/03/16 01:26:34;;;;;;;0.75;0.40;;;;;;;7.44;100.00;96626.53;5127353;27;20068;-79
2023/03/16 01:29:01;;;;;;;1.52;1.10;;;;;;;7.41;100.00;96626.69;5125971;27;20060;-78
2023/03/16 01:31:28;;;;;;;0.30;0.30;;;;;;;7.49;100.00;96631.53;5142018;27;20027;-79
2023/03/16 01:33:53;;;;;;;0.85;0.70;;;;;;;7.45;100.00;96625.56;5119988;27;20031;-78
2023/03/16 01:36:19;;;;;;;1.73;0.70;;;;;;;7.55;100.00;96636.47;5133127;27;20027;-79
2023/03/16 01:38:45;;;;;;;0.32;0.32;;;;;;;7.51;100.00;96629.63;5110903;27;20035;-79
2023/03/16 01:41:11;;;;;;;1.20;1.10;;;;;;;7.54;100.00;96632.09;5114271;27;20058;-79
2023/03/16 01:43:39;;;;;;;1.13;0.88;;;;;;;7.57;100.00;96624.75;5124494;27;20459;-78
2023/03/16 01:46:04;;;;;;;0.75;0.55;;;;;;;7.58;100.00;96618.50;5129120;27;20058;-78
2023/03/16 01:48:55;;;;;;;0.70;0.68;;;;;;;7.56;100.00;96603.59;5134278;27;20466;-79
2023/03/16 01:51:27;;;;;;;4.47;1.25;;;;;;;7.62;100.00;96612.03;5117021;27;20023;-78
2023/03/16 01:53:57;;;;;;;0.10;0.10;;;;;;;7.52;100.00;96588.78;5134154;27;20023;-79
2023/03/16 01:56:29;;;;;;;0.70;0.63;;;;;;;7.49;100.00;96581.84;5129655;27;20026;-79
2023/03/16 01:58:57;;;;;;;1.00;0.85;;;;;;;7.52;100.00;96588.78;5122868;27;20029;-77
2023/03/16 02:01:25;;;;;;;1.35;0.95;;;;;;;7.36;100.00;96610.19;5135722;27;20026;-78
2023/03/16 02:03:54;;;;;;;0.52;0.52;;;;;;;7.32;100.00;96632.59;5131101;27;20033;-78
2023/03/16 02:06:22;;;;;;;0.40;0.40;;;;;;;7.39;100.00;96641.06;5099052;27;20448;-78
2023/03/16 02:08:48;;;;;;;0.90;0.90;;;;;;;7.44;100.00;96641.63;5101488;27;20030;-79
2023/03/16 02:11:17;;;;;;;1.65;0.68;;;;;;;7.44;100.00;96628.34;5126719;27;20060;-79
2023/03/16 02:13:44;;;;;;;0.20;0.20;;;;;;;7.33;100.00;96636.13;5141465;27;20037;-79
2023/03/16 02:16:11;;;;;;;0.82;0.52;;;;;;;7.41;100.00;96644.50;5118877;27;20072;-79
2023/03/16 02:18:37;;;;;;;0.30;0.30;;;;;;;7.32;100.00;96640.59;5116548;27;20019;-78
2023/03/16 02:21:18;;;;;;;3.85;0.82;;;;;;;7.42;100.00;96656.81;5123799;27;20038;-79
2023/03/16 02:23:44;;;;;;;2.10;0.95;;;;;;;7.39;100.00;96649.91;5153603;27;20046;-78
2023/03/16 02:26:28;;;;;;;0.75;0.75;;;;;;;7.37;100.00;96659.78;5131799;27;20095;-78
2023/03/16 02:29:30;;;;;;;1.38;0.55;;;;;;;7.30;100.00;96674.41;5106432;27;20518;-78
2023/03/16 02:31:57;;;;;;;0.30;0.30;;;;;;;7.25;100.00;96665.03;5058021;28;20443;-79
2023/03/16 02:34:23;;;;;;;0.82;0.80;;;;;;;7.35;100.00;96684.78;5097096;27;20035;-77
2023/03/16 02:36:51;;;;;;;1.13;0.52;;;;;;;7.39;100.00;96688.94;5140381;27;20026;-78
2023/03/16 02:39:17;;;;;;;1.23;0.73;;;;;;;7.39;100.00;96688.94;5125530;27;20034;-79
2023/03/16 02:41:43;;;;;;;1.40;1.00;;;;;;;7.45;100.00;96684.09;5123297;27;20479;-79
2023/03/16 02:44:16;;;;;;;1.15;0.93;;;;;;;7.44;100.00;96676.22;5118139;27;20105;-79
2023/03/16 02:46:43;;;;;;;0.50;0.50;;;;;;;7.47;100.00;96684.88;5090183;27;20026;-78
2023/03/16 02:49:20;;;;;;;0.93;0.88;;;;;;;7.51;100.00;96694.34;5123541;27;20038;-79
2023/03/16 02:51:46;;;;;;;1.30;0.70;;;;;;;7.44;100.00;96686.88;5116111;27;20054;-80
2023/03/16 02:54:12;;;;;;;0.60;0.60;;;;;;;7.38;100.00;96701.38;5097474;27;20380;-80
2023/03/16 02:56:38;;;;;;;0.40;0.40;;;;;;;7.36;100.00;96707.75;5130888;27;20054;-78
2023/03/16 02:59:04;;;;;;;1.38;1.10;;;;;;;7.23;100.00;96714.81;5098764;27;20023;-78
2023/03/16 03:01:31;;;;;;;4.05;1.38;;;;;;;7.16;100.00;96724.09;5098528;27;20035;-78
2023/03/16 03:03:56;;;;;;;0.22;0.22;;;;;;;7.12;100.00;96730.56;5115866;27;20036;-78
2023/03/16 03:06:24;;;;;;;0.85;0.85;;;;;;;7.13;100.00;96735.78;5114011;27;20464;-79
2023/03/16 03:08:50;;;;;;;0.43;0.43;;;;;;;7.19;100.00;96734.56;5117346;27;20056;-79
2023/03/16 03:11:18;;;;;;;0.52;0.47;;;;;;;7.08;100.00;96737.84;5129715;27;20402;-78
2023/03/16 03:13:44;;;;;;;1.55;0.70;;;;;;;7.14;100.00;96747.28;5122217;27;20102;-79
2023/03/16 03:16:10;;;;;;;0.43;0.38;;;;;;;7.06;100.00;96745.94;5106802;27;20022;-79
2023/03/16 03:18:35;;;;;;;2.80;1.55;;;;;;;7.04;100.00;96753.13;5113900;27;20031;-78
2023/03/16 03:21:01;;;;;;;2.50;0.88;;;;;;;7.03;100.00;96756.75;5125139;27;20998;-79
2023/03/16 03:23:26;;;;;;;0.57;0.57;;;;;;;7.01;100.00;96769.28;5113770;27;20066;-79
2023/03/16 03:25:58;;;;;;;1.90;1.17;;;;;;;6.92;100.00;96766.34;5113757;27;20084;-79
2023/03/16 03:28:24;;;;;;;1.17;0.30;;;;;;;6.86;100.00;96770.19;5130863;27;20029;-83
2023/03/16 03:30:50;;;;;;;0.15;0.15;;;;;;;6.73;100.00;96763.06;5130806;27;20026;-83
2023/03/16 03:33:16;;;;;;;0.55;0.40;;;;;;;6.57;100.00;96735.69;5124840;27;20026;-81
2023/03/16 03:35:45;;;;;;;0.22;0.22;;;;;;;6.53;100.00;96741.19;5123037;27;20031;-82
2023/03/16 03:38:11;;;;;;;0.22;0.22;;;;;;;6.56;100.00;96740.13;5130415;27;20023;-78
2023/03/16 03:40:36;;;;;;;2.05;0.95;;;;;;;6.52;100.00;96759.88;5165127;27;20031;-79
2023/03/16 03:43:03;;;;;;;1.48;1.00;;;;;;;6.46;100.00;96765.56;5121868;27;20493;-78
2023/03/16 03:45:29;;;;;;;0.52;0.40;;;;;;;6.46;100.00;96768.22;5124568;27;20031;-77
2023/03/16 03:47:55;;;;;;;0.17;0.17;;;;;;;6.45;100.00;96785.94;5121905;27;20102;-78
2023/03/16 03:50:21;;;;;;;0.32;0.32;;;;;;;6.40;100.00;96795.09;5130516;27;20054;-79
2023/03/16 03:52:47;;;;;;;1.13;0.65;;;;;;;6.41;100.00;96789.69;5130402;27;20038;-78
2023/03/16 03:55:13;;;;;;;0.28;0.28;;;;;;;6.33;100.00;96785.78;5130391;27;20027;-78
2023/03/16 03:57:38;;;;;;;2.35;0.63;;;;;;;6.25;100.00;96772.06;5131747;27;20033;-79
2023/03/16 04:00:10;;;;;;;2.20;1.08;;;;;;;6.20;100.00;96779.47;5139244;27;20023;-79
2023/03/16 04:02:37;;;;;;;0.15;0.15;;;;;;;6.10;100.00;96772.94;5122020;28;20389;-80
2023/03/16 04:05:03;;;;;;;0.08;0.08;;;;;;;6.14;100.00;96783.31;5113529;28;20506;-78
2023/03/16 04:07:28;;;;;;;0.30;0.30;;;;;;;6.10;100.00;96778.25;5123087;28;20023;-79
2023/03/16 04:09:54;;;;;;;0.73;0.73;;;;;;;6.11;100.00;96786.16;5114771;28;20517;-79
2023/03/16 04:12:20;;;;;;;0.10;0.10;;;;;;;6.01;100.00;96766.38;5120203;28;20027;-79
2023/03/16 04:14:46;;;;;;;0.10;0.10;;;;;;;5.99;100.00;96773.56;5122165;28;20023;-79
2023/03/16 04:17:11;;;;;;;0.15;0.15;;;;;;;5.92;100.00;96775.72;5147505;27;20019;-79
2023/03/16 04:19:37;;;;;;;0.93;0.85;;;;;;;5.95;100.00;96777.31;5131231;27;20478;-78
2023/03/16 04:22:02;;;;;;;2.03;1.05;;;;;;;5.99;100.00;96790.34;5146229;27;20030;-79
2023/03/16 04:24:28;;;;;;;0.47;0.43;;;;;;;5.94;100.00;96796.84;5117000;28;20585;-79
2023/03/16 04:26:54;;;;;;;0.35;0.35;;;;;;;6.01;100.00;96795.56;5112615;28;20051;-79
2023/03/16 04:29:19;;;;;;;5.57;2.47;;;;;;;5.98;100.00;96809.88;5135568;27;20050;-79
2023/03/16 04:31:45;;;;;;;1.13;0.55;;;;;;;5.94;100.00;96802.16;5147100;27;20113;-79
2023/03/16 04:34:11;;;;;;;0.77;0.77;;;;;;;5.93;100.00;96798.66;5114949;27;20027;-79
2023/03/16 04:36:37;;;;;;;0.47;0.47;;;;;;;5.86;100.00;96802.59;5107137;28;20027;-84
2023/03/16 04:39:04;;;;;;;1.63;0.90;;;;;;;5.85;100.00;96797.31;5147676;27;20031;-79
2023/03/16 04:41:30;;;;;;;0.60;0.60;;;;;;;5.83;100.00;96802.72;5117219;28;20027;-79
2023/03/16 04:43:56;;;;;;;0.45;0.45;;;;;;;5.80;100.00;96794.94;5129327;27;20055;-79
2023/03/16 04:46:22;;;;;;;0.47;0.38;;;;;;;5.89;100.00;96815.69;5138625;27;20402;-80
2023/03/16 04:48:48;;;;;;;0.75;0.75;;;;;;;5.83;100.00;96808.03;5122844;28;20501;-79
2023/03/16 04:51:14;;;;;;;0.30;0.30;;;;;;;5.72;100.00;96794.47;5140361;27;20019;-80
2023/03/16 04:53:39;;;;;;;0.45;0.45;;;;;;;5.83;100.00;96815.13;5131110;27;20039;-81
2023/03/16 04:56:06;;;;;;;0.17;0.17;;;;;;;5.91;100.00;96823.53;5114466;27;20026;-79
2023/03/16 04:58:32;;;;;;;0.65;0.55;;;;;;;5.86;100.00;96829.13;5121138;27;20140;-79
2023/03/16 05:00:57;;;;;;;0.13;0.13;;;;;;;5.91;100.00;96827.06;5125173;27;20031;-79
2023/03/16 05:03:23;;;;;;;0.10;0.10;;;;;;;5.93;100.00;96817.25;5105428;27;20043;-80
2023/03/16 05:05:49;;;;;;;0.25;0.25;;;;;;;5.91;100.00;96816.44;5131435;27;20042;-80
2023/03/16 05:08:15;;;;;;;0.10;0.10;;;;;;;5.91;100.00;96829.72;5125419;27;20023;-80
2023/03/16 05:10:41;;;;;;;0.52;0.50;;;;;;;5.84;100.00;96830.97;5113197;27;20027;-78
2023/03/16 05:13:06;;;;;;;1.02;0.63;;;;;;;5.90;100.00;96838.63;5159691;27;20506;-80
2023/03/16 05:15:32;;;;;;;0.70;0.40;;;;;;;5.79;100.00;96822.41;5125588;27;20031;-77
2023/03/16 05:17:58;;;;;;;0.10;0.10;;;;;;;5.77;100.00;96821.63;5113935;27;20027;-77
2023/03/16 05:20:24;;;;;;;0.75;0.40;;;;;;;5.68;100.00;96822.13;5102696;27;20042;-80
2023/03/16 05:22:50;;;;;;;0.10;0.10;;;;;;;5.65;100.00;96827.59;5124628;27;20135;-78
2023/03/16 05:28:20;;;;;;;0.15;0.15;;;;;;;5.65;100.00;96835.56;5119277;27;20072;-76
2023/03/16 05:30:45;;;;;;;0.57;0.57;;;;;;;5.64;100.00;96851.56;5107542;27;20432;-81
2023/03/16 05:33:51;;;;;;;0.08;0.08;;;;;;;5.69;100.00;96863.63;5131088;27;20026;-81
2023/03/16 05:36:17;;;;;;;3.38;1.38;;;;;;;5.62;100.00;96846.34;5114336;27;20087;-79
2023/03/16 05:39:33;;;;;;;0.10;0.10;;;;;;;5.43;100.00;96811.13;5126473;27;20035;-82
2023/03/16 05:42:20;;;;;;;0.20;0.20;;;;;;;5.40;100.00;96836.03;5051782;28;20451;-82
2023/03/16 05:44:45;;;;;;;0.22;0.22;;;;;;;5.31;100.00;96838.28;5049058;28;20051;-79
2023/03/16 05:47:29;;;;;;;0.15;0.15;;;;;;;5.29;100.00;96848.97;5033447;28;20424;-81
2023/03/16 05:49:54;;;;;;;0.00;0.00;;;;;;;5.37;100.00;96873.31;5072646;28;20160;-78
2023/03/16 05:52:20;;;;;;;1.10;0.60;;;;;;;5.42;100.00;96888.97;5098495;28;20493;-82
2023/03/16 05:54:45;;;;;;;1.02;1.02;;;;;;;5.43;100.00;96896.84;5075141;28;20058;-81
2023/03/16 05:57:11;;;;;;;0.55;0.55;;;;;;;5.32;100.00;96877.13;5059508;28;20028;-80
2023/03/16 05:59:37;;;;;;;0.60;0.60;;;;;;;5.33;100.00;96884.13;5086255;28;20039;-80
2023/03/16 06:02:02;;;;;;;0.10;0.10;;;;;;;5.29;100.00;96890.56;5052506;28;20120;-81
2023/03/16 06:04:28;;;;;;;0.08;0.08;;;;;;;5.13;100.00;96873.72;5086906;28;20036;-80
2023/03/16 06:06:53;;;;;;;0.60;0.40;;;;;;;5.10;100.00;96879.16;5076058;28;20495;-80
2023/03/16 06:09:19;;;;;;;0.20;0.20;;;;;;;5.18;100.00;96898.19;5099157;28;20046;-79
2023/03/16 06:11:44;;;;;;;0.10;0.10;;;;;;;5.09;100.00;96903.94;5077523;28;20128;-80
2023/03/16 06:14:10;;;;;;;0.10;0.10;;;;;;;4.98;100.00;96908.94;5088488;28;20034;-80
2023/03/16 06:16:35;;;;;;;0.20;0.20;;;;;;;5.00;100.00;96912.38;5091719;28;20027;-79
2023/03/16 06:19:01;;;;;;;0.40;0.40;;;;;;;4.94;100.00;96905.59;5076435;27;20130;-80
2023/03/16 06:21:26;;;;;;;0.52;0.52;;;;;;;4.93;100.00;96909.16;5143861;27;20034;-78
2023/03/16 06:23:52;;;;;;;2.15;1.73;;;;;;;4.97;100.00;96925.75;5107836;28;20476;-80
2023/03/16 06:26:18;;;;;;;0.93;0.75;;;;;;;4.99;100.00;96937.13;5109029;27;20027;-80
2023/03/16 06:28:43;;;;;;;0.10;0.10;;;;;;;5.05;100.00;96944.78;5106166;27;20056;-80
2023/03/16 06:31:09;;;;;;;0.10;0.10;;;;;;;5.00;100.00;96944.16;5122632;27;20033;-79
2023/03/16 06:33:35;;;;;;;0.10;0.10;;;;;;;5.02;100.00;96942.28;5101908;27;20042;-79
2023/03/16 06:36:00;;;;;;;2.97;2.45;;;;;;;4.98;100.00;96938.09;5129237;27;20030;-80
2023/03/16 06:38:26;;;;;;;0.20;0.20;;;;;;;5.00;100.00;96941.50;5120231;27;20547;-80
2023/03/16 06:40:52;;;;;;;4.15;3.72;;;;;;;5.12;100.00;96962.97;5114406;27;20027;-80
2023/03/16 06:43:21;;;;;;;2.10;0.90;;;;;;;5.21;100.00;96966.94;5094350;28;20122;-81
2023/03/16 06:45:46;;;;;;;0.47;0.47;;;;;;;5.22;100.00;96968.66;5117248;27;20035;-79
2023/03/16 06:48:12;;;;;;;3.10;2.50;;;;;;;5.29;100.00;96980.69;5126072;27;20081;-80
2023/03/16 06:50:40;;;;;;;1.20;1.08;;;;;;;5.27;100.00;96972.81;5144466;27;20031;-80
2023/03/16 06:53:07;;;;;;;0.25;0.25;;;;;;;5.16;100.00;96967.19;5111084;27;20050;-80
2023/03/16 06:55:32;;;;;;;0.20;0.20;;;;;;;5.15;100.00;96965.47;5117427;27;20131;-80
2023/03/16 06:57:58;;;;;;;0.70;0.63;;;;;;;5.16;100.00;96974.28;5103168;27;20470;-81
2023/03/16 07:00:23;;;;;;;0.38;0.32;;;;;;;5.19;100.00;96971.47;5124264;27;20035;-80
2023/03/16 07:02:50;;;;;;;0.10;0.10;;;;;;;5.33;100.00;97006.09;5122495;27;20027;-80
2023/03/16 07:05:15;;;;;;;0.52;0.52;;;;;;;5.33;100.00;97011.41;5083667;27;20061;-82
2023/03/16 07:07:42;;;;;;;0.35;0.35;;;;;;;5.46;100.00;97021.34;5138407;27;20080;-80
2023/03/16 07:10:11;;;;;;;0.68;0.68;;;;;;;5.26;100.00;97002.06;5116511;27;20023;-80
2023/03/16 07:12:36;;;;;;;1.95;1.02;;;;;;;5.23;100.00;96991.59;5090909;28;20119;-81
2023/03/16 07:15:02;;;;;;;0.13;0.13;;;;;;;5.21;100.00;96986.38;5118266;27;20106;-80
2023/03/16 07:17:28;;;;;;;0.20;0.20;;;;;;;5.29;100.00;97007.22;5120822;27;20038;-80
2023/03/16 07:19:53;;;;;;;3.30;1.17;;;;;;;5.29;100.00;97007.22;5107708;28;20612;-79
2023/03/16 07:22:19;;;;;;;1.25;1.15;;;;;;;5.31;100.00;97021.22;5116496;27;20054;-81
2023/03/16 07:24:44;;;;;;;1.25;1.15;;;;;;;5.30;100.00;97012.41;5118902;27;20047;-82
2023/03/16 07:27:10;;;;;;;1.27;0.63;;;;;;;5.06;100.00;96999.50;5107348;27;20031;-80
2023/03/16 07:29:36;;;;;;;0.20;0.20;;;;;;;5.07;100.00;97009.19;5128353;27;20031;-81
2023/03/16 07:32:02;;;;;;;1.95;0.93;;;;;;;5.07;100.00;97017.13;5117820;27;20031;-81
2023/03/16 07:34:28;;;;;;;0.73;0.73;;;;;;;5.08;100.00;97014.41;5110992;27;20019;-81
2023/03/16 07:36:54;;;;;;;0.40;0.40;;;;;;;5.15;100.00;97044.13;5094302;28;20123;-81
2023/03/16 07:39:20;;;;;;;0.20;0.20;;;;;;;4.99;100.00;97014.84;5116818;27;20026;-79
2023/03/16 07:41:45;;;;;;;1.70;1.55;;;;;;;5.20;100.00;97050.06;5111694;27;20046;-81
2023/03/16 07:44:11;;;;;;;8.70;7.18;;;;;;;5.34;100.00;97045.81;5166071;27;20031;-82
2023/03/16 07:46:37;;;;;;;2.28;0.85;;;;;;;5.29;100.00;97049.63;5123720;27;20379;-82
2023/03/16 07:49:02;;;;;;;4.18;0.43;;;;;;;5.31;100.00;97043.31;5148480;27;20542;-80
2023/03/16 07:51:28;;;;;;;0.43;0.43;;;;;;;5.20;100.00;97037.66;5135653;27;20402;-80
2023/03/16 07:53:53;;;;;;;0.28;0.28;;;;;;;5.21;100.00;97039.38;5101808;27;20087;-81
2023/03/16 07:56:20;;;;;;;2.30;0.90;;;;;;;5.36;100.00;97053.66;5113115;28;20059;-81
2023/03/16 07:58:46;;;;;;;5.57;1.20;;;;;;;5.32;100.00;97046.81;5113878;28;20499;-81
2023/03/16 08:01:11;;;;;;;3.25;1.17;;;;;;;5.42;100.00;97051.56;5102548;28;20127;-80
2023/03/16 08:03:37;;;;;;;1.23;0.90;;;;;;;5.35;100.00;97054.63;5137423;27;20067;-79
2023/03/16 08:06:04;;;;;;;0.20;0.20;;;;;;;5.26;100.00;97058.56;5110224;28;20042;-80
2023/03/16 08:08:30;;;;;;;0.70;0.70;;;;;;;5.46;100.00;97060.25;5144373;27;20058;-81
2023/03/16 08:10:56;;;;;;;0.50;0.50;;;;;;;5.53;100.00;97059.00;5120635;28;20023;-80
2023/03/16 08:13:21;;;;;;;1.42;0.95;;;;;;;5.52;100.00;97046.69;5139643;27;20022;-80
2023/03/16 08:15:48;;;;;;;0.13;0.13;;;;;;;5.59;100.00;97037.50;5127864;27;20020;-80
2023/03/16 08:18:13;;;;;;;0.38;0.38;;;;;;;5.67;100.00;97040.59;5143973;27;20066;-81
2023/03/16 08:20:40;;;;;;;0.55;0.55;;;;;;;5.74;100.00;97052.63;5101469;28;20051;-80
2023/03/16 08:23:06;;;;;;;1.70;0.65;;;;;;;5.65;100.00;97039.84;5114711;27;20136;-79
2023/03/16 08:25:32;;;;;;;0.15;0.15;;;;;;;5.63;100.00;97044.34;5143949;27;20377;-80
2023/03/16 08:27:57;;;;;;;0.57;0.57;;;;;;;5.79;100.00;97076.25;5131376;27;20075;-80
2023/03/16 08:30:24;;;;;;;0.30;0.30;;;;;;;5.64;100.00;97056.66;5121846;27;20491;-79
2023/03/16 08:32:49;;;;;;;0.43;0.40;;;;;;;5.63;100.00;97051.47;5114204;27;20042;-81
2023/03/16 08:35:15;;;;;;;0.10;0.10;;;;;;;5.67;100.00;97058.31;5148025;27;20394;-81
2023/03/16 08:37:41;;;;;;;0.75;0.75;;;;;;;5.53;100.00;97056.38;5101433;27;20027;-80
2023/03/16 08:40:14;;;;;;;0.20;0.20;;;;;;;5.63;100.00;97067.38;5105796;27;20420;-80
2023/03/16 08:42:40;;;;;;;0.45;0.45;;;;;;;5.66;100.00;97069.88;5124591;27;20068;-80
2023/03/16 08:45:08;;;;;;;0.65;0.65;;;;;;;5.63;100.00;97073.50;5110456;27;20114;-82
2023/03/16 08:47:39;;;;;;;12.05;0.95;;;;;;;5.65;100.00;97074.31;5099732;28;20160;-82
2023/03/16 08:50:06;;;;;;;0.15;0.15;;;;;;;5.62;100.00;97073.59;5102717;28;20107;-79
2023/03/16 08:52:35;;;;;;;0.15;0.15;;;;;;;5.57;100.00;97078.28;5104961;28;20019;-80
2023/03/16 08:55:04;;;;;;;1.58;0.85;;;;;;;5.59;100.00;97079.94;5117127;27;20157;-80
2023/03/16 08:57:33;;;;;;;0.40;0.40;;;;;;;5.64;100.00;97091.16;5108807;27;20072;-80
2023/03/16 08:59:59;;;;;;;0.10;0.10;;;;;;;5.69;100.00;97102.38;5128291;27;20024;-80
2023/03/16 09:02:25;;;;;;;0.10;0.10;;;;;;;5.57;100.00;97086.25;5118663;27;20023;-80
2023/03/16 09:04:51;;;;;;;0.20;0.10;;;;;;;5.34;100.00;97064.38;5123317;27;20028;-81
2023/03/16 09:07:17;;;;;;;0.20;0.20;;;;;;;5.34;100.00;97079.41;5105984;27;20054;-81
2023/03/16 09:09:44;;;;;;;0.88;0.60;;;;;;;5.48;100.00;97088.41;5120564;27;20140;-80
2023/03/16 09:12:09;;;;;;;0.95;0.82;;;;;;;5.51;100.00;97090.03;5142338;27;20542;-80
2023/03/16 09:14:37;;;;;;;0.60;0.57;;;;;;;5.53;100.00;97089.97;5120202;27;20019;-78
2023/03/16 09:17:06;;;;;;;1.27;0.68;;;;;;;5.51;100.00;97098.00;5114746;27;20015;-81
2023/03/16 09:19:32;;;;;;;2.78;0.85;;;;;;;5.50;100.00;97080.38;5116167;27;20019;-80
2023/03/16 09:22:01;;;;;;;2.20;0.95;;;;;;;5.64;100.00;97082.34;5116420;27;20031;-81
2023/03/16 09:24:26;;;;;;;2.20;1.73;;;;;;;5.47;100.00;97085.84;5090129;28;20085;-80
2023/03/16 09:26:52;;;;;;;3.78;0.98;;;;;;;5.46;100.00;97076.16;5075593;28;20028;-80
2023/03/16 09:29:17;;;;;;;0.70;0.68;;;;;;;5.63;100.00;97115.97;5075740;28;20043;-79
2023/03/16 09:31:44;;;;;;;0.10;0.10;;;;;;;5.63;100.00;97118.63;5092575;28;20038;-80
2023/03/16 09:34:10;;;;;;;0.30;0.30;;;;;;;5.74;100.00;97108.34;5092247;28;20047;-79
2023/03/16 09:36:36;;;;;;;2.92;0.20;;;;;;;5.84;100.00;97104.31;5092452;28;20012;-80
2023/03/16 09:39:02;;;;;;;0.70;0.32;;;;;;;5.86;100.00;97089.19;5075517;28;20050;-79
2023/03/16 09:41:44;;;;;;;0.20;0.20;;;;;;;5.90;100.00;97082.78;5075058;28;20036;-81
2023/03/16 09:44:30;;;;;;;0.10;0.10;;;;;;;5.83;100.00;97094.63;5092101;28;20081;-80
2023/03/16 09:46:58;;;;;;;0.30;0.30;;;;;;;5.71;100.00;97083.75;5075251;28;20031;-79
2023/03/16 09:49:27;;;;;;;0.13;0.13;;;;;;;5.78;100.00;97096.63;5075447;28;20384;-82
2023/03/16 09:52:15;;;;;;;1.10;0.90;;;;;;;5.93;100.00;97101.22;5092324;28;20020;-81
2023/03/16 09:55:04;;;;;;;0.22;0.22;;;;;;;5.94;100.00;97070.19;5075368;28;20129;-80
2023/03/16 09:57:34;;;;;;;0.03;0.03;;;;;;;5.96;100.00;97093.09;5091729;28;20471;-81
2023/03/16 10:00:21;;;;;;;2.67;0.73;;;;;;;5.99;100.00;97097.38;5091926;28;20406;-80
2023/03/16 10:03:14;;;;;;;1.65;1.00;;;;;;;6.22;100.00;97096.19;5092240;28;20086;-80
2023/03/16 10:05:40;;;;;;;0.05;0.05;;;;;;;6.27;100.00;97099.47;5091892;28;20118;-81
2023/03/16 10:08:15;;;;;;;0.10;0.10;;;;;;;6.38;100.00;97094.44;5092192;28;20054;-80
2023/03/16 10:10:46;;;;;;;3.70;0.52;;;;;;;6.22;100.00;97090.88;5074224;28;20036;-81
2023/03/16 10:13:20;;;;;;;0.57;0.57;;;;;;;6.27;100.00;97094.16;5092498;28;20118;-80
2023/03/16 10:15:47;;;;;;;0.00;0.00;;;;;;;6.30;100.00;97083.38;5092730;28;20491;-80
2023/03/16 10:18:19;;;;;;;0.28;0.28;;;;;;;6.27;100.00;97079.09;5074437;28;20471;-80
2023/03/16 10:20:46;;;;;;;0.10;0.10;;;;;;;6.25;100.00;97099.53;5091599;28;20027;-81
2023/03/16 10:23:20;;;;;;;0.10;0.10;;;;;;;6.19;100.00;97078.63;5095563;27;20086;-81
2023/03/16 10:25:53;;;;;;;0.10;0.10;;;;;;;6.26;100.00;97093.31;5097916;27;20024;-81
2023/03/16 10:28:26;;;;;;;0.10;0.10;;;;;;;6.20;100.00;97093.63;5128350;27;20546;-80
2023/03/16 10:30:52;;;;;;;;;;;;;;;6.16;100.00;97091.19;5142829;27;20042;-80
2023/03/16 10:33:22;;;;;;;0.10;0.10;;;;;;;6.17;100.00;97090.25;5107944;27;20452;-80
2023/03/16 10:36:09;;;;;;;0.00;0.00;;;;;;;5.92;100.00;97093.31;5122781;27;20023;-81
2023/03/16 10:38:45;;;;;;;0.10;0.10;;;;;;;6.04;100.00;97124.53;5133496;27;20023;-81
2023/03/16 10:41:17;;;;;;;0.03;0.03;;;;;;;5.84;100.00;97114.91;5131364;27;20028;-82
2023/03/16 10:43:44;;;;;;;0.43;0.43;;;;;;;5.82;100.00;97116.78;5148306;27;20529;-81
2023/03/16 10:46:11;;;;;;;0.20;0.20;;;;;;;5.90;100.00;97141.19;5099361;27;20035;-80
2023/03/16 10:48:39;;;;;;;0.88;0.88;;;;;;;5.91;100.00;97134.91;5103906;27;20038;-80
2023/03/16 10:51:11;;;;;;;0.80;0.45;;;;;;;5.89;100.00;97128.84;5146230;27;20050;-81
2023/03/16 10:53:40;;;;;;;0.88;0.73;;;;;;;5.96;100.00;97134.69;5130557;27;20035;-77
2023/03/16 10:56:22;;;;;;;0.75;0.55;;;;;;;5.69;100.00;97113.00;5148713;27;20525;-77
2023/03/16 10:58:48;;;;;;;2.42;1.33;;;;;;;5.92;100.00;97146.41;5114108;27;20038;-81
2023/03/16 11:01:25;;;;;;;0.85;0.63;;;;;;;5.83;100.00;97137.06;5103302;27;20027;-80
2023/03/16 11:03:54;;;;;;;1.45;0.63;;;;;;;5.78;100.00;97128.47;5106064;27;20106;-82
2023/03/16 11:06:30;;;;;;;5.05;0.65;;;;;;;5.88;100.00;97127.09;5109551;27;20035;-80
2023/03/16 11:09:11;;;;;;;2.08;0.68;;;;;;;5.97;100.00;97105.41;5141922;27;20031;-81
2023/03/16 11:11:37;;;;;;;0.70;0.43;;;;;;;6.06;100.00;97100.59;5138325;27;20038;-80
2023/03/16 11:14:11;;;;;;;0.10;0.10;;;;;;;6.08;100.00;97098.69;5105730;27;20530;-81
2023/03/16 11:16:45;;;;;;;0.88;0.57;;;;;;;6.19;100.00;97083.94;5122602;27;20019;-81
2023/03/16 11:19:26;;;;;;;0.52;0.52;;;;;;;6.35;100.00;97087.50;5114320;27;20031;-81
2023/03/16 11:22:03;;;;;;;0.30;0.30;;;;;;;6.35;100.00;97084.00;5163319;27;20379;-81
2023/03/16 11:24:37;;;;;;;0.30;0.08;;;;;;;6.31;100.00;97093.03;5096835;27;20047;-81
2023/03/16 11:27:07;;;;;;;0.28;0.28;;;;;;;6.11;100.00;97095.88;5133232;27;20470;-81
2023/03/16 11:29:35;;;;;;;0.30;0.30;;;;;;;6.23;100.00;97108.53;5100250;27;20030;-80
2023/03/16 11:32:11;;;;;;;0.47;0.20;;;;;;;6.27;100.00;97104.78;5122770;27;20478;-80
2023/03/16 11:34:37;;;;;;;3.90;1.85;;;;;;;6.22;100.00;97104.16;5122688;27;20023;-82
2023/03/16 11:37:29;;;;;;;0.17;0.17;;;;;;;6.14;100.00;97111.66;5097563;27;20019;-81
2023/03/16 11:40:24;;;;;;;0.30;0.30;;;;;;;6.27;100.00;97103.00;5114747;27;20019;-80
2023/03/16 11:43:15;;;;;;;0.32;0.32;;;;;;;6.18;100.00;97095.50;5112101;27;20062;-81